^^
Your Local Weather - Clay, NY Station Historical Data
Daily Summary for May 28, 2017 Units:  English    Metric   Both
« Previous Day
Next Day »
Daily Weekly Monthly Yearly Custom
  High: Low: Average:
Temperature: 77.3 °F 49.0 °F 63.7 °F
Dew Point: 60.4 °F 47.1 °F 54.5 °F
Humidity: 95% 48% 74%
Wind Speed: 5.0mph 0.0mph 1.4mph
Wind Gust: 10.0mph - -
Wind- - SE
Pressure: 29.89 in 29.73 in -
Precipitation: 0.00 in    
Historical Graphs
 
 
Tabular Data for May 28, 2017
Time Temperature Dew Point Pressure Wind Wind Speed Wind Gust Humidity Rainfall Rate (Hourly) solar
00:05 52.8 °F 50.2 °F 29.87 in Calm     91% 0.00 in 0 W/m2
00:12 52.6 °F 50.0 °F 29.87 in Calm     91% 0.00 in 0 W/m2
00:18 52.4 °F 49.8 °F 29.87 in Calm     91% 0.00 in 0 W/m2
00:23 52.3 °F 50.0 °F 29.87 in Calm     92% 0.00 in 0 W/m2
00:29 52.1 °F 49.6 °F 29.87 in Calm     91% 0.00 in 0 W/m2
00:35 51.9 °F 49.6 °F 29.88 in Calm     92% 0.00 in 0 W/m2
00:42 51.6 °F 49.4 °F 29.88 in Calm     92% 0.00 in 0 W/m2
00:48 51.5 °F 49.3 °F 29.88 in Calm     92% 0.00 in 0 W/m2
00:53 51.4 °F 49.2 °F 29.87 in Calm     92% 0.00 in 0 W/m2
01:00 51.3 °F 49.1 °F 29.87 in Calm     92% 0.00 in 0 W/m2
01:06 51.3 °F 49.1 °F 29.88 in Calm     92% 0.00 in 0 W/m2
01:12 51.2 °F 49.0 °F 29.88 in Calm     92% 0.00 in 0 W/m2
01:18 51.2 °F 49.0 °F 29.88 in Calm     92% 0.00 in 0 W/m2
01:24 51.1 °F 48.9 °F 29.87 in Calm     92% 0.00 in 0 W/m2
01:36 50.8 °F 48.6 °F 29.87 in Calm     92% 0.00 in 0 W/m2
01:42 50.8 °F 48.6 °F 29.88 in Calm     92% 0.00 in 0 W/m2
01:48 50.7 °F 48.5 °F 29.87 in Calm     92% 0.00 in 0 W/m2
01:54 50.8 °F 48.8 °F 29.86 in Calm     93% 0.00 in 0 W/m2
02:00 50.9 °F 48.9 °F 29.85 in Calm     93% 0.00 in 0 W/m2
02:06 50.7 °F 48.7 °F 29.85 in Calm     93% 0.00 in 0 W/m2
02:12 50.5 °F 48.6 °F 29.84 in Calm     93% 0.00 in 0 W/m2
02:18 50.4 °F 48.5 °F 29.85 in Calm     93% 0.00 in 0 W/m2
02:24 50.4 °F 48.5 °F 29.84 in Calm     93% 0.00 in 0 W/m2
02:30 50.3 °F 48.4 °F 29.86 in Calm     93% 0.00 in 0 W/m2
02:36 50.2 °F 48.3 °F 29.86 in Calm     93% 0.00 in 0 W/m2
02:42 50.0 °F 48.1 °F 29.86 in Calm     93% 0.00 in 0 W/m2
02:48 49.8 °F 47.9 °F 29.86 in Calm     93% 0.00 in 0 W/m2
02:54 49.8 °F 47.9 °F 29.86 in Calm     93% 0.00 in 0 W/m2
03:00 49.7 °F 47.8 °F 29.85 in Calm     93% 0.00 in 0 W/m2
03:06 49.6 °F 47.7 °F 29.86 in Calm     93% 0.00 in 0 W/m2
03:12 49.6 °F 47.7 °F 29.86 in Calm     93% 0.00 in 0 W/m2
03:18 49.5 °F 47.6 °F 29.87 in Calm     93% 0.00 in 0 W/m2
03:24 49.3 °F 47.4 °F 29.88 in Calm     93% 0.00 in 0 W/m2
03:30 49.2 °F 47.3 °F 29.88 in Calm     93% 0.00 in 0 W/m2
03:36 49.0 °F 47.1 °F 29.88 in Calm     93% 0.00 in 0 W/m2
03:42 49.2 °F 47.3 °F 29.88 in Calm     93% 0.00 in 0 W/m2
03:48 49.1 °F 47.2 °F 29.88 in Calm     93% 0.00 in 0 W/m2
03:54 49.1 °F 47.2 °F 29.88 in Calm     93% 0.00 in 0 W/m2
04:00 49.4 °F 47.5 °F 29.87 in Calm     93% 0.00 in 0 W/m2
04:06 49.6 °F 47.9 °F 29.86 in Calm     94% 0.00 in 0 W/m2
04:12 49.7 °F 48.0 °F 29.86 in Calm     94% 0.00 in 0 W/m2
04:18 49.8 °F 48.1 °F 29.86 in Calm     94% 0.00 in 0 W/m2
04:24 49.8 °F 48.1 °F 29.86 in Calm     94% 0.00 in 0 W/m2
04:30 49.6 °F 47.9 °F 29.86 in Calm     94% 0.00 in 0 W/m2
04:36 49.3 °F 47.4 °F 29.86 in Calm     93% 0.00 in 0 W/m2
04:42 49.2 °F 47.5 °F 29.86 in Calm     94% 0.00 in 0 W/m2
04:48 49.1 °F 47.4 °F 29.86 in Calm     94% 0.00 in 0 W/m2
04:54 49.1 °F 47.4 °F 29.86 in Calm     94% 0.00 in 0 W/m2
05:00 49.2 °F 47.5 °F 29.86 in Calm     94% 0.00 in 0 W/m2
05:06 49.3 °F 47.6 °F 29.86 in Calm     94% 0.00 in 0 W/m2
05:12 49.3 °F 47.6 °F 29.86 in Calm     94% 0.00 in 0 W/m2
05:18 49.4 °F 47.7 °F 29.87 in Calm     94% 0.00 in 0 W/m2
05:24 49.3 °F 47.6 °F 29.87 in Calm     94% 0.00 in 5 W/m2
05:30 49.2 °F 47.5 °F 29.87 in Calm     94% 0.00 in 5 W/m2
05:36 49.4 °F 47.7 °F 29.87 in Calm     94% 0.00 in 9 W/m2
05:42 49.4 °F 47.7 °F 29.87 in Calm     94% 0.00 in 14 W/m2
05:48 49.4 °F 47.7 °F 29.88 in Calm     94% 0.00 in 19 W/m2
05:54 49.4 °F 47.7 °F 29.88 in Calm     94% 0.00 in 25 W/m2
06:00 49.5 °F 47.8 °F 29.88 in Calm     94% 0.00 in 30 W/m2
06:06 49.7 °F 48.0 °F 29.88 in Calm     94% 0.00 in 35 W/m2
06:12 49.8 °F 48.1 °F 29.88 in Calm     94% 0.00 in 42 W/m2
06:18 50.0 °F 48.3 °F 29.88 in Calm     94% 0.00 in 65 W/m2
06:26 50.3 °F 48.6 °F 29.88 in Calm     94% 0.00 in 65 W/m2
06:32 50.8 °F 49.1 °F 29.88 in Calm     94% 0.00 in 91 W/m2
06:38 51.1 °F 49.4 °F 29.89 in Calm     94% 0.00 in 69 W/m2
06:44 51.4 °F 49.7 °F 29.89 in Calm   2.0 mph 94% 0.00 in 69 W/m2
06:50 51.6 °F 49.9 °F 29.89 in West 1.0 mph 1.0 mph 94% 0.00 in 81 W/m2
06:56 52.0 °F 50.3 °F 29.89 in Calm   1.0 mph 94% 0.00 in 95 W/m2
07:02 52.3 °F 50.6 °F 29.89 in Calm   1.0 mph 94% 0.00 in 107 W/m2
07:08 52.6 °F 50.9 °F 29.89 in West 1.0 mph 3.0 mph 94% 0.00 in 105 W/m2
07:14 52.9 °F 51.2 °F 29.88 in West 1.0 mph 1.0 mph 94% 0.00 in 120 W/m2
07:20 53.3 °F 51.6 °F 29.88 in Calm   2.0 mph 94% 0.00 in 128 W/m2
07:26 53.5 °F 52.1 °F 29.88 in Calm   2.0 mph 95% 0.00 in 178 W/m2
07:32 54.1 °F 52.4 °F 29.88 in ENE 1.0 mph 3.0 mph 94% 0.00 in 232 W/m2
07:38 54.6 °F 52.9 °F 29.87 in ENE 1.0 mph 3.0 mph 94% 0.00 in 244 W/m2
07:44 54.8 °F 53.1 °F 29.87 in ENE 1.0 mph 2.0 mph 94% 0.00 in 211 W/m2
07:50 55.2 °F 53.5 °F 29.87 in ENE 1.0 mph 3.0 mph 94% 0.00 in 253 W/m2
07:56 55.7 °F 54.0 °F 29.87 in ENE 1.0 mph 3.0 mph 94% 0.00 in 279 W/m2
08:02 56.3 °F 54.9 °F 29.87 in ENE 1.0 mph 2.0 mph 95% 0.00 in 278 W/m2
08:08 56.7 °F 55.0 °F 29.86 in ENE 1.0 mph 3.0 mph 94% 0.00 in 294 W/m2
08:14 57.1 °F 55.4 °F 29.86 in ENE 2.0 mph 2.0 mph 94% 0.00 in 288 W/m2
08:20 57.5 °F 55.8 °F 29.86 in East 2.0 mph 2.0 mph 94% 0.00 in 338 W/m2
08:26 58.1 °F 56.1 °F 29.85 in East 2.0 mph 5.0 mph 93% 0.00 in 343 W/m2
08:32 58.5 °F 56.2 °F 29.85 in SW 2.0 mph 2.0 mph 92% 0.00 in 322 W/m2
08:38 59.1 °F 56.2 °F 29.85 in East 1.0 mph 2.0 mph 90% 0.00 in 355 W/m2
08:44 59.8 °F 56.6 °F 29.85 in East 1.0 mph 1.0 mph 89% 0.00 in 301 W/m2
08:50 60.3 °F 56.7 °F 29.85 in ESE 1.0 mph 2.0 mph 88% 0.00 in 403 W/m2
08:56 60.9 °F 56.7 °F 29.85 in East 2.0 mph 2.0 mph 86% 0.00 in 452 W/m2
09:02 61.8 °F 56.6 °F 29.84 in SE 1.0 mph 4.0 mph 83% 0.00 in 492 W/m2
09:08 62.2 °F 56.3 °F 29.85 in NE 2.0 mph 4.0 mph 81% 0.00 in 536 W/m2
09:14 62.9 °F 57.0 °F 29.85 in NE 1.0 mph 3.0 mph 81% 0.00 in 624 W/m2
09:20 62.9 °F 55.9 °F 29.85 in ENE 2.0 mph 2.0 mph 78% 0.00 in 329 W/m2
09:26 63.0 °F 56.0 °F 29.86 in NE 3.0 mph 3.0 mph 78% 0.00 in 341 W/m2
09:32 63.4 °F 55.7 °F 29.85 in ENE 3.0 mph 5.0 mph 76% 0.00 in 399 W/m2
09:38 63.2 °F 55.5 °F 29.84 in East 3.0 mph 5.0 mph 76% 0.00 in 336 W/m2
09:44 63.4 °F 56.4 °F 29.84 in North 3.0 mph 3.0 mph 78% 0.00 in 385 W/m2
09:50 63.9 °F 56.2 °F 29.84 in ENE 2.0 mph 2.0 mph 76% 0.00 in 311 W/m2
09:56 64.5 °F 57.5 °F 29.84 in NNE 2.0 mph 2.0 mph 78% 0.00 in 417 W/m2
10:03 65.4 °F 56.9 °F 29.84 in ENE 2.0 mph 2.0 mph 74% 0.00 in 436 W/m2
10:08 65.6 °F 57.1 °F 29.84 in SE 2.0 mph 2.0 mph 74% 0.00 in 503 W/m2
10:14 66.1 °F 57.6 °F 29.84 in NNW 1.0 mph 5.0 mph 74% 0.00 in 682 W/m2
10:20 66.0 °F 57.8 °F 29.84 in NNE 2.0 mph 3.0 mph 75% 0.00 in 745 W/m2
10:24 66.2 °F 56.9 °F 29.83 in ENE 3.0 mph 5.0 mph 72% 0.00 in 756 W/m2
10:30 66.3 °F 57.0 °F 29.83 in ENE 2.0 mph 2.0 mph 72% 0.00 in 490 W/m2
10:36 66.7 °F 57.4 °F 29.83 in ENE 1.0 mph 4.0 mph 72% 0.00 in 666 W/m2
10:42 67.2 °F 59.0 °F 29.83 in ESE 2.0 mph 4.0 mph 75% 0.00 in 712 W/m2
10:48 67.5 °F 58.9 °F 29.83 in SSE 2.0 mph 4.0 mph 74% 0.00 in 838 W/m2
10:54 68.1 °F 58.7 °F 29.82 in NE 2.0 mph 3.0 mph 72% 0.00 in 937 W/m2
11:00 67.6 °F 57.9 °F 29.82 in NE 2.0 mph 3.0 mph 71% 0.00 in 909 W/m2
11:06 68.5 °F 58.7 °F 29.82 in North 3.0 mph 3.0 mph 71% 0.00 in 898 W/m2
11:12 69.0 °F 58.8 °F 29.82 in SSE 2.0 mph 3.0 mph 70% 0.00 in 656 W/m2
11:18 69.2 °F 58.2 °F 29.82 in ENE 2.0 mph 4.0 mph 68% 0.00 in 722 W/m2
11:24 69.0 °F 58.4 °F 29.82 in SSE 3.0 mph 10.0 mph 69% 0.00 in 838 W/m2
11:30 69.5 °F 58.9 °F 29.82 in ESE 4.0 mph 4.0 mph 69% 0.00 in 670 W/m2
11:36 69.5 °F 58.5 °F 29.82 in SE 2.0 mph 4.0 mph 68% 0.00 in 631 W/m2
11:42 69.7 °F 59.1 °F 29.82 in SSE 2.0 mph 3.0 mph 69% 0.00 in 724 W/m2
11:48 70.1 °F 58.6 °F 29.83 in East 2.0 mph 5.0 mph 67% 0.00 in 635 W/m2
11:54 70.7 °F 59.2 °F 29.82 in SE 2.0 mph 6.0 mph 67% 0.00 in 849 W/m2
12:00 70.4 °F 60.1 °F 29.82 in SE 2.0 mph 2.0 mph 70% 0.00 in 733 W/m2
12:06 70.0 °F 59.4 °F 29.82 in NE 3.0 mph 4.0 mph 69% 0.00 in 515 W/m2
12:12 70.2 °F 59.6 °F 29.82 in ENE 2.0 mph 3.0 mph 69% 0.00 in 698 W/m2
12:18 70.3 °F 59.2 °F 29.82 in ENE 2.0 mph 3.0 mph 68% 0.00 in 390 W/m2
12:24 70.6 °F 60.3 °F 29.82 in NE 2.0 mph 3.0 mph 70% 0.00 in 554 W/m2
12:30 71.3 °F 59.8 °F 29.82 in SE 2.0 mph 2.0 mph 67% 0.00 in 752 W/m2
12:36 71.7 °F 59.3 °F 29.82 in East 3.0 mph 5.0 mph 65% 0.00 in 838 W/m2
12:42 70.8 °F 59.7 °F 29.82 in ENE 3.0 mph 4.0 mph 68% 0.00 in 350 W/m2
12:48 71.2 °F 58.8 °F 29.82 in North 2.0 mph 4.0 mph 65% 0.00 in 346 W/m2
12:52 71.5 °F 60.4 °F 29.82 in SSE 1.0 mph 2.0 mph 68% 0.00 in 446 W/m2
12:58 71.6 °F 57.9 °F 29.82 in SSE 2.0 mph 5.0 mph 62% 0.00 in 376 W/m2
13:04 72.1 °F 58.8 °F 29.82 in South 2.0 mph 4.0 mph 63% 0.00 in 427 W/m2
13:10 72.6 °F 57.4 °F 29.82 in South 1.0 mph 1.0 mph 59% 0.00 in 399 W/m2
13:16 72.8 °F 58.1 °F 29.82 in South 1.0 mph 2.0 mph 60% 0.00 in 374 W/m2
13:22 72.6 °F 57.0 °F 29.82 in SE 2.0 mph 3.0 mph 58% 0.00 in 490 W/m2
13:28 72.8 °F 57.6 °F 29.82 in SE 1.0 mph 3.0 mph 59% 0.00 in 476 W/m2
13:34 72.8 °F 57.2 °F 29.82 in SSE 2.0 mph 4.0 mph 58% 0.00 in 311 W/m2
13:40 72.4 °F 58.6 °F 29.81 in SSE 3.0 mph 6.0 mph 62% 0.00 in 255 W/m2
13:46 72.5 °F 57.8 °F 29.81 in SSE 2.0 mph 6.0 mph 60% 0.00 in 334 W/m2
13:52 73.2 °F 57.5 °F 29.81 in South 2.0 mph 6.0 mph 58% 0.00 in 455 W/m2
13:58 74.1 °F 57.9 °F 29.81 in SSE 3.0 mph 6.0 mph 57% 0.00 in 443 W/m2
14:04 73.7 °F 58.0 °F 29.81 in SSE 2.0 mph 5.0 mph 58% 0.00 in 320 W/m2
14:10 73.2 °F 56.6 °F 29.80 in SSE 3.0 mph 5.0 mph 56% 0.00 in 262 W/m2
14:16 73.1 °F 57.4 °F 29.80 in SSE 2.0 mph 5.0 mph 58% 0.00 in 309 W/m2
14:22 73.7 °F 59.4 °F 29.80 in SSE 2.0 mph 7.0 mph 61% 0.00 in 494 W/m2
14:28 74.5 °F 58.3 °F 29.80 in SE 2.0 mph 7.0 mph 57% 0.00 in 545 W/m2
14:34 74.3 °F 56.1 °F 29.79 in SSE 4.0 mph 7.0 mph 53% 0.00 in 436 W/m2
14:40 74.2 °F 58.0 °F 29.79 in SSE 3.0 mph 3.0 mph 57% 0.00 in 271 W/m2
14:46 73.7 °F 58.0 °F 29.79 in East 2.0 mph 4.0 mph 58% 0.00 in 318 W/m2
14:52 73.8 °F 57.6 °F 29.79 in SE 2.0 mph 2.0 mph 57% 0.00 in 334 W/m2
14:58 74.0 °F 57.3 °F 29.78 in East 2.0 mph 2.0 mph 56% 0.00 in 394 W/m2
15:04 74.4 °F 57.7 °F 29.78 in NE 3.0 mph 6.0 mph 56% 0.00 in 448 W/m2
15:10 75.0 °F 57.7 °F 29.78 in ENE 3.0 mph 3.0 mph 55% 0.00 in 323 W/m2
15:16 74.2 °F 58.5 °F 29.77 in SSE 3.0 mph 4.0 mph 58% 0.00 in 301 W/m2
15:22 74.3 °F 57.6 °F 29.77 in ENE 3.0 mph 5.0 mph 56% 0.00 in 227 W/m2
15:28 73.7 °F 58.9 °F 29.77 in ESE 3.0 mph 5.0 mph 60% 0.00 in 183 W/m2
15:34 73.8 °F 57.6 °F 29.76 in SE 2.0 mph 3.0 mph 57% 0.00 in 213 W/m2
15:40 74.1 °F 59.8 °F 29.76 in SE 1.0 mph 1.0 mph 61% 0.00 in 243 W/m2
15:46 74.4 °F 56.7 °F 29.76 in SSE 1.0 mph 4.0 mph 54% 0.00 in 248 W/m2
15:52 74.2 °F 57.5 °F 29.76 in SE 2.0 mph 3.0 mph 56% 0.00 in 156 W/m2
15:58 74.1 °F 57.9 °F 29.76 in SSE 2.0 mph 6.0 mph 57% 0.00 in 169 W/m2
16:04 74.0 °F 55.8 °F 29.75 in SE 3.0 mph 6.0 mph 53% 0.00 in 178 W/m2
16:10 74.3 °F 56.6 °F 29.75 in SE 3.0 mph 6.0 mph 54% 0.00 in 301 W/m2
16:16 75.0 °F 56.7 °F 29.75 in SSE 3.0 mph 6.0 mph 53% 0.00 in 207 W/m2
16:22 74.9 °F 57.1 °F 29.75 in SSE 3.0 mph 6.0 mph 54% 0.00 in 229 W/m2
16:28 74.8 °F 57.0 °F 29.75 in SSE 4.0 mph 7.0 mph 54% 0.00 in 229 W/m2
16:34 74.9 °F 57.6 °F 29.75 in SSE 3.0 mph 6.0 mph 55% 0.00 in 295 W/m2
16:40 75.9 °F 57.0 °F 29.75 in SE 2.0 mph 2.0 mph 52% 0.00 in 468 W/m2
16:46 76.7 °F 58.3 °F 29.75 in SSE 3.0 mph 7.0 mph 53% 0.00 in 612 W/m2
16:52 76.5 °F 58.6 °F 29.74 in SSE 4.0 mph 5.0 mph 54% 0.00 in 454 W/m2
16:58 77.1 °F 59.2 °F 29.74 in SSE 3.0 mph 6.0 mph 54% 0.00 in 209 W/m2
17:04 77.3 °F 57.2 °F 29.74 in ENE 3.0 mph 6.0 mph 50% 0.00 in 237 W/m2
17:10 76.7 °F 56.1 °F 29.74 in SE 3.0 mph 5.0 mph 49% 0.00 in 248 W/m2
17:16 76.6 °F 55.4 °F 29.74 in SSE 3.0 mph 5.0 mph 48% 0.00 in 120 W/m2
17:22 75.7 °F 54.6 °F 29.74 in SE 4.0 mph 4.0 mph 48% 0.00 in 90 W/m2
17:28 75.4 °F 54.9 °F 29.74 in SSE 3.0 mph 4.0 mph 49% 0.00 in 98 W/m2
17:34 75.2 °F 55.3 °F 29.74 in SSW 2.0 mph 4.0 mph 50% 0.00 in 90 W/m2
17:40 75.0 °F 55.6 °F 29.74 in South 3.0 mph 4.0 mph 51% 0.00 in 93 W/m2
17:46 74.9 °F 55.0 °F 29.74 in SSE 3.0 mph 4.0 mph 50% 0.00 in 116 W/m2
17:52 74.9 °F 55.0 °F 29.74 in South 3.0 mph 3.0 mph 50% 0.00 in 120 W/m2
17:58 75.0 °F 55.1 °F 29.73 in SE 4.0 mph 8.0 mph 50% 0.00 in 97 W/m2
18:04 74.9 °F 55.6 °F 29.73 in SSE 3.0 mph 5.0 mph 51% 0.00 in 118 W/m2
18:10 75.0 °F 55.6 °F 29.73 in SE 3.0 mph 3.0 mph 51% 0.00 in 148 W/m2
18:16 75.0 °F 56.7 °F 29.73 in SE 5.0 mph 7.0 mph 53% 0.00 in 137 W/m2
18:22 74.6 °F 56.9 °F 29.73 in SE 5.0 mph 6.0 mph 54% 0.00 in 74 W/m2
18:28 74.2 °F 57.0 °F 29.73 in SSE 4.0 mph 6.0 mph 55% 0.00 in 56 W/m2
18:34 73.9 °F 56.7 °F 29.73 in SE 4.0 mph 6.0 mph 55% 0.00 in 70 W/m2
18:40 73.7 °F 57.5 °F 29.73 in SE 3.0 mph 3.0 mph 57% 0.00 in 44 W/m2
18:46 73.5 °F 57.3 °F 29.73 in SSE 3.0 mph 5.0 mph 57% 0.00 in 28 W/m2
18:52 73.3 °F 56.7 °F 29.73 in SE 3.0 mph 5.0 mph 56% 0.00 in 28 W/m2
18:58 73.3 °F 57.1 °F 29.73 in SE 4.0 mph 5.0 mph 57% 0.00 in 23 W/m2
19:04 73.1 °F 56.5 °F 29.73 in SSE 2.0 mph 7.0 mph 56% 0.00 in 32 W/m2
19:10 73.1 °F 57.0 °F 29.73 in SSE 3.0 mph 3.0 mph 57% 0.00 in 35 W/m2
19:16 73.1 °F 57.0 °F 29.74 in SSE 2.0 mph 5.0 mph 57% 0.00 in 35 W/m2
19:22 73.2 °F 56.6 °F 29.73 in SE 3.0 mph 3.0 mph 56% 0.00 in 32 W/m2
19:28 73.2 °F 56.6 °F 29.74 in SSE 4.0 mph 7.0 mph 56% 0.00 in 23 W/m2
19:34 73.2 °F 56.6 °F 29.74 in SSE 3.0 mph 4.0 mph 56% 0.00 in 18 W/m2
19:40 73.1 °F 57.0 °F 29.74 in SE 3.0 mph 3.0 mph 57% 0.00 in 19 W/m2
19:46 72.9 °F 56.3 °F 29.74 in SSE 3.0 mph 5.0 mph 56% 0.00 in 16 W/m2
19:52 72.8 °F 56.7 °F 29.74 in SE 4.0 mph 4.0 mph 57% 0.00 in 18 W/m2
19:58 72.6 °F 56.0 °F 29.74 in SE 4.0 mph 4.0 mph 56% 0.00 in 12 W/m2
20:04 72.5 °F 56.4 °F 29.74 in South 3.0 mph 4.0 mph 57% 0.00 in 9 W/m2
20:10 72.4 °F 56.3 °F 29.74 in SSE 2.0 mph 2.0 mph 57% 0.00 in 7 W/m2
20:16 72.2 °F 56.6 °F 29.74 in SE 2.0 mph 8.0 mph 58% 0.00 in 5 W/m2
20:22 72.1 °F 56.5 °F 29.74 in SSE 3.0 mph 3.0 mph 58% 0.00 in 0 W/m2
20:28 71.9 °F 56.3 °F 29.74 in SE 3.0 mph 3.0 mph 58% 0.00 in 0 W/m2
20:34 71.7 °F 56.6 °F 29.74 in SE 1.0 mph 2.0 mph 59% 0.00 in 0 W/m2
20:40 71.3 °F 57.2 °F 29.74 in SSE 1.0 mph 1.0 mph 61% 0.00 in 0 W/m2
20:46 70.9 °F 56.8 °F 29.74 in SSE 1.0 mph 2.0 mph 61% 0.00 in 0 W/m2
20:52 70.5 °F 57.3 °F 29.74 in SSE 1.0 mph 2.0 mph 63% 0.00 in 0 W/m2
20:58 70.2 °F 56.6 °F 29.74 in SSE 1.0 mph 5.0 mph 62% 0.00 in 0 W/m2
21:04 70.5 °F 56.4 °F 29.75 in SE 2.0 mph 4.0 mph 61% 0.00 in 0 W/m2
21:10 70.4 °F 56.3 °F 29.75 in SE 2.0 mph 2.0 mph 61% 0.00 in 0 W/m2
21:16 70.2 °F 56.6 °F 29.75 in SE 1.0 mph 2.0 mph 62% 0.00 in 0 W/m2
21:22 69.6 °F 56.9 °F 29.75 in Calm   5.0 mph 64% 0.00 in 0 W/m2
21:28 69.2 °F 56.5 °F 29.75 in ESE 1.0 mph 5.0 mph 64% 0.00 in 0 W/m2
21:34 69.1 °F 56.8 °F 29.75 in ESE 1.0 mph 1.0 mph 65% 0.00 in 0 W/m2
21:40 68.8 °F 56.6 °F 29.74 in Calm     65% 0.00 in 0 W/m2
21:46 68.6 °F 56.8 °F 29.74 in SE 1.0 mph 3.0 mph 66% 0.00 in 0 W/m2
21:52 68.5 °F 56.7 °F 29.74 in ESE 1.0 mph 1.0 mph 66% 0.00 in 0 W/m2
22:00 67.8 °F 57.3 °F 29.74 in Calm     69% 0.00 in 0 W/m2
22:06 67.2 °F 57.1 °F 29.75 in Calm     70% 0.00 in 0 W/m2
22:12 66.6 °F 56.9 °F 29.75 in Calm     71% 0.00 in 0 W/m2
22:18 66.1 °F 56.8 °F 29.75 in Calm     72% 0.00 in 0 W/m2
22:24 65.6 °F 56.7 °F 29.75 in Calm     73% 0.00 in 0 W/m2
22:30 65.5 °F 57.0 °F 29.75 in Calm     74% 0.00 in 0 W/m2
22:36 65.4 °F 57.3 °F 29.75 in Calm     75% 0.00 in 0 W/m2
22:42 65.4 °F 56.9 °F 29.75 in Calm     74% 0.00 in 0 W/m2
22:48 65.6 °F 57.1 °F 29.75 in Calm     74% 0.00 in 0 W/m2
22:54 65.4 °F 56.9 °F 29.75 in Calm   1.0 mph 74% 0.00 in 0 W/m2
23:00 65.1 °F 56.6 °F 29.75 in Calm     74% 0.00 in 0 W/m2
23:06 65.2 °F 56.7 °F 29.75 in Calm   2.0 mph 74% 0.00 in 0 W/m2
23:12 65.3 °F 56.8 °F 29.75 in Calm     74% 0.00 in 0 W/m2
23:18 65.2 °F 57.1 °F 29.74 in Calm   1.0 mph 75% 0.00 in 0 W/m2
23:24 65.1 °F 57.0 °F 29.74 in Calm   1.0 mph 75% 0.00 in 0 W/m2
23:30 65.3 °F 56.8 °F 29.74 in SE 1.0 mph 1.0 mph 74% 0.00 in 0 W/m2
23:36 65.4 °F 56.5 °F 29.74 in NE 1.0 mph 1.0 mph 73% 0.00 in 0 W/m2
23:42 65.3 °F 56.8 °F 29.74 in Calm     74% 0.00 in 0 W/m2
23:48 65.2 °F 57.1 °F 29.73 in Calm   1.0 mph 75% 0.00 in 0 W/m2
23:54 65.3 °F 56.4 °F 29.73 in ENE 1.0 mph 4.0 mph 73% 0.00 in 0 W/m2
Country Meadow, Clay, NY, USA
Compliments of Weather Underground - 2 mb